UNR Ag. Experiment Farm, Sparks, Nevada Weather observations

Data are for 10 minute period ending at time listed.
 Day   Time   Solar   Ave.   Ave.  Ave.  Vector  Max.   Baro.   Total    
  of    of     Rad.   Air    Rel.  Wind   Wind   Wind  Press.  Precip.   
Year   Day            Temp.  Hum.  Speed  Dir.   Gust                    
2014   (PST)  Kw/m2    F      %     mph   deg.    mph    mb.     in.     
-------------------------------------------------------------------------
 353    0:00   0.00   30.5    86    4.5   328     5.9   867.2    0.00 
 353    0:10   0.00   33.1    88    2.1   330     4.1   866.9    0.00 
 353    0:20   0.00   32.4    84    5.0   295     6.0   867.1    0.00 
 353    0:30   0.00   31.2    86    3.4   331     5.0   867.2    0.00 
 353    0:40   0.00   31.9    87    0.7   158     1.8   867.3    0.00 
 353    0:50   0.00   31.8    86    3.4    77     5.3   867.5    0.00 
 353    1:00   0.00   32.4    86    5.1    85     7.5   867.1    0.00 
 353    1:10   0.00   32.5    86    2.9   112     5.0   867.1    0.00 
 353    1:20   0.00   32.8    86    2.2    86     3.7   866.8    0.00 
 353    1:30   0.00   34.1    82    3.9   343     5.8   866.6    0.00 
 353    1:40   0.00   31.5    85    3.0   217     6.3   866.9    0.00 
 353    1:50   0.00   32.4    86    3.0   237     5.8   866.9    0.00 
 353    2:00   0.00   32.5    86    2.7   288     4.8   867.1    0.00 
 353    2:10   0.00   31.9    86    2.2   261     5.3   867.3    0.00 
 353    2:20   0.00   32.5    86    2.4    11     5.3   867.3    0.00 
 353    2:30   0.00   31.4    84    4.9    41     6.3   867.6    0.00 
 353    2:40   0.00   30.2    89    2.5   138     4.5   867.7    0.00 
 353    2:50   0.00   30.2    89    2.0   220     6.2   867.6    0.00 
 353    3:00   0.00   29.5    90    4.0   236     6.3   867.7    0.00 
 353    3:10   0.00   29.6    90    3.6   153     5.8   867.5    0.00 
 353    3:20   0.00   28.7    91    1.6   266     3.4   867.2    0.00 
 353    3:30   0.00   27.6    91    2.3   289     4.2   867.1    0.00 
 353    3:40   0.00   26.8    91    2.3   317     3.7   867.0    0.00 
 353    3:50   0.00   26.4    92    3.0    54     6.8   866.6    0.00 
 353    4:00   0.00   29.5    93    3.7   268     9.0   866.5    0.00 
 353    4:10   0.00   31.4    88    4.9   264     9.9   866.4    0.00 
 353    4:20   0.00   30.3    87    5.3   291     8.0   866.4    0.00 
 353    4:30   0.00   30.4    88    2.6    58     5.6   866.5    0.00 
 353    4:40   0.00   29.4    89    3.6   115     6.1   866.3    0.00 
 353    4:50   0.00   28.8    88    2.1   187     4.2   866.2    0.00 
 353    5:00   0.00   28.5    91    4.3   247    10.0   866.1    0.00 
 353    5:10   0.00   28.5    88    4.0   163     5.9   866.2    0.00 
 353    5:20   0.00   26.4    90    3.0    33     5.2   866.3    0.00 
 353    5:30   0.00   26.9    91    4.9    69     7.6   866.3    0.00 
 353    5:40   0.00   27.8    91    3.2   109     4.7   866.3    0.00 
 353    5:50   0.00   26.8    90    2.4   243     5.1   866.2    0.00 
 353    6:00   0.00   27.0    91    1.9   183     5.5   866.0    0.00 
 353    6:10   0.00   26.7    91    0.4   105     1.8   865.9    0.00 
 353    6:20   0.00   26.1    91    2.8   246     4.7   866.0    0.00 
 353    6:30   0.00   26.3    92    2.3   259     6.1   866.1    0.00 
 353    6:40   0.00   27.4    92    3.9   326     8.9   866.3    0.00 
 353    6:50   0.00   29.6    89    4.3    83     7.5   866.2    0.00 
 353    7:00   0.00   30.0    86    3.9   120     9.7   865.9    0.00 
 353    7:10   0.00   30.2    83    3.9   328     6.6   865.8    0.00 
 353    7:20   0.00   29.9    85    5.1   320     8.0   865.9    0.00 
 353    7:30   0.01   31.3    82    6.7   336     8.7   866.0    0.00 
 353    7:40   0.01   33.0    78    3.3     1     8.2   865.7    0.00 
 353    7:50   0.02   34.1    72    5.9    63     9.9   865.8    0.00 
 353    8:00   0.03   34.8    68    5.3     4     9.0   865.8    0.00 
 353    8:10   0.10   34.6    72    2.3   294     3.9   866.0    0.00 
 353    8:20   0.11   35.4    73    2.5   355     3.9   866.1    0.00 
 353    8:30   0.14   37.4    69    1.3    11     3.5   866.3    0.00 
 353    8:40   0.12   38.6    66    2.7    63     4.4   866.3    0.00 
 353    8:50   0.12   38.9    65    2.1    83     4.5   866.3    0.00 
 353    9:00   0.12   40.1    66    1.1   119     4.3   866.5    0.00 
 353    9:10   0.13   39.7    68    1.4   118     3.1   866.7    0.00 
 353    9:20   0.14   40.8    63    2.4   352     5.1   866.8    0.00 
 353    9:30   0.16   42.0    57    3.3    18     5.0   866.8    0.00 
 353    9:40   0.18   43.8    52    2.5    54     3.9   866.9    0.00 
 353    9:50   0.18   44.6    50    2.8    26     3.8   866.9    0.00 
 353   10:00   0.14   44.8    48    2.2     6     3.6   866.9    0.00 
 353   10:10   0.14   45.0    49    2.4   298     3.4   867.0    0.00 
 353   10:20   0.14   45.3    47    2.9   302     4.9   867.0    0.00 
 353   10:30   0.16   46.0    44    2.7   328     4.4   867.0    0.00 
 353   10:40   0.17   46.8    38    1.6    67     2.6   866.9    0.00 
 353   10:50   0.14   46.9    43    1.7   132     3.8   867.0    0.00 
 353   11:00   0.14   46.7    45    3.2   255     5.9   866.9    0.00 
 353   11:10   0.13   46.8    48    5.8   272    11.8   866.8    0.00 
 353   11:20   0.10   45.5    63    9.3   272    12.9   867.0    0.00 
 353   11:30   0.10   44.9    68    8.0   279    11.2   867.0    0.00 
 353   11:40   0.13   44.6    72    8.2   285    12.3   867.0    0.00 
 353   11:50   0.15   44.3    76    6.8   288     9.7   867.1    0.00 
 353   12:00   0.17   44.4    77    6.0   275     9.9   867.1    0.00 

Return to Sparks, Nevada, UNR Ag Experiment Farm graphs page.


Western Regional Climate Center,wrcc@dri.edu